Time;durP1;ratioP1;P1;durP2;ratioP2;P2;SDS_P1;SDS_P2;PMS_P1;PMS_P2;Temp;Humidity;BMP_temperature;BMP_pressure;BME280_temperature;BME280_humidity;BME280_pressure;Samples;Min_cycle;Max_cycle;Signal;HPM_P1;HPM_P2
2022/05/20 00:00:48;;;;;;;9.25;7.32;;;;;;;;;;5106282;27;20066;-76
2022/05/20 00:03:15;;;;;;;9.65;7.43;;;;;;;;;;5103807;28;20122;-76
2022/05/20 00:05:41;;;;;;;10.02;7.28;;;;;;;;;;5087331;27;20393;-76
2022/05/20 00:08:08;;;;;;;10.05;7.45;;;;;;;;;;5109271;27;20134;-76
2022/05/20 00:10:34;;;;;;;14.30;8.10;;;;;;;;;;5108964;27;20435;-76
2022/05/20 00:13:01;;;;;;;12.38;7.65;;;;;;;;;;5103607;27;20040;-76
2022/05/20 00:15:28;;;;;;;11.18;7.32;;;;;;;;;;5093345;27;20044;-77
2022/05/20 00:17:55;;;;;;;9.30;7.57;;;;;;;;;;5105657;27;20039;-76
2022/05/20 00:20:22;;;;;;;14.38;8.73;;;;;;;;;;5105987;27;20035;-77
2022/05/20 00:22:49;;;;;;;7.97;7.18;;;;;;;;;;5107365;27;20051;-77
2022/05/20 00:28:01;;;;;;;11.57;8.55;;;;;;;;;;5101160;27;20055;-77
2022/05/20 00:30:28;;;;;;;11.55;8.65;;;;;;;;;;5100166;28;20477;-76
2022/05/20 00:32:54;;;;;;;10.98;8.25;;;;;;;;;;5102213;27;20073;-76
2022/05/20 00:35:21;;;;;;;15.25;7.63;;;;;;;;;;5098143;27;20027;-76
2022/05/20 00:37:47;;;;;;;11.95;9.10;;;;;;;;;;5102505;28;20374;-76
2022/05/20 00:40:15;;;;;;;11.02;9.63;;;;;;;;;;5081594;28;20048;-76
2022/05/20 00:42:41;;;;;;;12.82;9.57;;;;;;;;;;5099069;27;20043;-77
2022/05/20 00:45:08;;;;;;;14.38;10.75;;;;;;;;;;5098902;27;20740;-76
2022/05/20 00:47:35;;;;;;;13.18;11.07;;;;;;;;;;5105339;27;20050;-77
2022/05/20 00:50:09;;;;;;;14.07;10.23;;;;;;;;;;5102020;27;20510;-77
2022/05/20 00:52:37;;;;;;;13.30;9.07;;;;;;;;;;5101631;27;20497;-76
2022/05/20 00:55:07;;;;;;;13.68;9.48;;;;;;;;;;5104879;27;20056;-77
2022/05/20 00:57:36;;;;;;;11.63;9.90;;;;;;;;;;5088411;28;20677;-76
2022/05/20 01:00:13;;;;;;;16.25;11.32;;;;;;;;;;5102585;28;20051;-77
2022/05/20 01:02:40;;;;;;;12.60;10.88;;;;;;;;;;5081270;27;20055;-77
2022/05/20 01:05:10;;;;;;;14.55;10.40;;;;;;;;;;5102085;27;20395;-77
2022/05/20 01:07:38;;;;;;;19.63;10.50;;;;;;;;;;5099213;27;20039;-77
2022/05/20 01:10:04;;;;;;;14.07;9.98;;;;;;;;;;5109095;27;20039;-76
2022/05/20 01:12:30;;;;;;;14.02;9.45;;;;;;;;;;5102964;27;20036;-76
2022/05/20 01:14:56;;;;;;;14.57;9.55;;;;;;;;;;5097773;28;20492;-77
2022/05/20 01:17:23;;;;;;;15.10;10.65;;;;;;;;;;5086456;28;20470;-77
2022/05/20 01:19:53;;;;;;;13.45;10.15;;;;;;;;;;5104435;28;20043;-76
2022/05/20 01:22:31;;;;;;;15.27;10.25;;;;;;;;;;5101679;27;20486;-77
2022/05/20 01:24:57;;;;;;;12.10;9.32;;;;;;;;;;5100201;27;20040;-77
2022/05/20 01:27:23;;;;;;;13.60;9.82;;;;;;;;;;5098799;28;20508;-77
2022/05/20 01:29:49;;;;;;;13.90;10.45;;;;;;;;;;5100906;28;20039;-77
2022/05/20 01:32:16;;;;;;;13.15;10.18;;;;;;;;;;5105942;27;20031;-77
2022/05/20 01:34:42;;;;;;;16.85;11.10;;;;;;;;;;5109644;28;20036;-77
2022/05/20 01:37:08;;;;;;;14.93;9.88;;;;;;;;;;5100620;28;20039;-77
2022/05/20 01:39:34;;;;;;;13.65;9.90;;;;;;;;;;5100560;28;20052;-77
2022/05/20 01:42:36;;;;;;;13.50;9.20;;;;;;;;;;5076703;28;20097;-77
2022/05/20 01:45:05;;;;;;;15.68;11.10;;;;;;;;;;5030674;28;20528;-78
2022/05/20 01:47:34;;;;;;;15.68;10.43;;;;;;;;;;5079202;28;20561;-78
2022/05/20 01:50:07;;;;;;;16.20;10.20;;;;;;;;;;5106340;27;20049;-77
2022/05/20 01:52:33;;;;;;;;;;;;;;;;;;5106971;27;20031;-77
2022/05/20 01:54:59;;;;;;;17.33;9.55;;;;;;;;;;5111238;27;20494;-77
2022/05/20 01:57:37;;;;;;;12.45;9.90;;;;;;;;;;5101156;27;20040;-77
2022/05/20 02:00:10;;;;;;;10.60;9.20;;;;;;;;;;5090522;28;20044;-77
2022/05/20 02:02:43;;;;;;;11.52;10.02;;;;;;;;;;5105459;28;20062;-77
2022/05/20 02:05:14;;;;;;;13.02;9.27;;;;;;;;;;5104690;28;20047;-77
2022/05/20 02:07:42;;;;;;;13.77;10.32;;;;;;;;;;5109628;28;20492;-77
2022/05/20 02:10:28;;;;;;;12.35;9.00;;;;;;;;;;5098850;28;20101;-77
2022/05/20 02:12:56;;;;;;;17.17;9.07;;;;;;;;;;5099137;28;20127;-77
2022/05/20 02:15:29;;;;;;;13.68;9.02;;;;;;;;;;5106307;28;20161;-77
2022/05/20 02:17:55;;;;;;;;;;;;;;;;;;5103984;28;20084;-78
2022/05/20 02:20:26;;;;;;;13.82;9.25;;;;;;;;;;5105250;28;19915;-77
2022/05/20 02:22:56;;;;;;;12.82;9.23;;;;;;;;;;5102057;28;20040;-77
2022/05/20 02:25:30;;;;;;;14.98;9.88;;;;;;;;;;5097757;28;20516;-77
2022/05/20 02:28:04;;;;;;;10.75;8.70;;;;;;;;;;5092870;28;20040;-77
2022/05/20 02:30:33;;;;;;;12.02;9.20;;;;;;;;;;5103348;28;20545;-77
2022/05/20 02:32:59;;;;;;;12.10;9.65;;;;;;;;;;5102744;28;20142;-77
2022/05/20 02:35:25;;;;;;;11.95;9.73;;;;;;;;;;5101534;28;20036;-77
2022/05/20 02:37:52;;;;;;;12.30;10.10;;;;;;;;;;5094024;28;20023;-78
2022/05/20 02:40:18;;;;;;;12.85;10.60;;;;;;;;;;5097678;28;20233;-78
2022/05/20 02:42:45;;;;;;;11.85;9.38;;;;;;;;;;5096254;28;20093;-77
2022/05/20 02:45:11;;;;;;;11.00;9.82;;;;;;;;;;5099643;28;20135;-77
2022/05/20 02:47:38;;;;;;;15.52;10.02;;;;;;;;;;5091296;28;20123;-77
2022/05/20 02:50:06;;;;;;;14.23;9.38;;;;;;;;;;5113500;27;20043;-77
2022/05/20 02:52:32;;;;;;;10.60;9.38;;;;;;;;;;5100060;28;20047;-78
2022/05/20 02:54:58;;;;;;;15.48;10.27;;;;;;;;;;5106325;27;20043;-77
2022/05/20 02:57:24;;;;;;;14.85;10.35;;;;;;;;;;5100447;28;20642;-77
2022/05/20 03:05:20;;;;;;;12.30;9.02;;;;;;;;;;5110753;27;20714;-77
2022/05/20 03:07:46;;;;;;;15.48;9.55;;;;;;;;;;5104110;27;20127;-77
2022/05/20 03:10:12;;;;;;;11.90;8.30;;;;;;;;;;5110190;27;20042;-77
2022/05/20 03:12:39;;;;;;;12.30;9.60;;;;;;;;;;5106228;27;20396;-77
2022/05/20 03:15:10;;;;;;;13.50;9.88;;;;;;;;;;5106991;28;20031;-77
2022/05/20 03:17:37;;;;;;;11.40;9.25;;;;;;;;;;5099435;27;20412;-77
2022/05/20 03:20:04;;;;;;;12.43;9.50;;;;;;;;;;5096778;27;20043;-77
2022/05/20 03:22:32;;;;;;;10.70;9.00;;;;;;;;;;5100372;28;20063;-77
2022/05/20 03:24:58;;;;;;;11.82;8.77;;;;;;;;;;5097491;27;20048;-77
2022/05/20 03:27:24;;;;;;;11.23;9.70;;;;;;;;;;5098991;27;20112;-77
2022/05/20 03:29:50;;;;;;;12.57;8.57;;;;;;;;;;5107642;27;20035;-77
2022/05/20 03:32:16;;;;;;;13.55;9.05;;;;;;;;;;5107778;27;20445;-77
2022/05/20 03:34:43;;;;;;;12.98;9.77;;;;;;;;;;5107571;27;20036;-77
2022/05/20 03:37:09;;;;;;;12.27;10.57;;;;;;;;;;5101580;28;20334;-77
2022/05/20 03:39:35;;;;;;;17.10;9.85;;;;;;;;;;5096191;27;20115;-77
2022/05/20 03:42:02;;;;;;;15.50;9.80;;;;;;;;;;5107431;27;20281;-77
2022/05/20 03:44:28;;;;;;;11.45;10.23;;;;;;;;;;5103060;27;20431;-77
2022/05/20 03:46:55;;;;;;;13.85;10.73;;;;;;;;;;5094084;27;20036;-77
2022/05/20 03:49:24;;;;;;;16.80;11.90;;;;;;;;;;5105716;27;20044;-77
2022/05/20 03:51:51;;;;;;;13.80;11.05;;;;;;;;;;5100764;27;20044;-77
2022/05/20 03:54:18;;;;;;;11.07;9.82;;;;;;;;;;5103229;27;20043;-77
2022/05/20 03:56:45;;;;;;;11.18;10.02;;;;;;;;;;5103256;27;20402;-76
2022/05/20 03:59:11;;;;;;;12.82;10.02;;;;;;;;;;5101440;27;20519;-77
2022/05/20 04:01:56;;;;;;;12.30;10.98;;;;;;;;;;5081367;27;20074;-77
2022/05/20 04:04:24;;;;;;;14.00;10.43;;;;;;;;;;5104227;27;20481;-77
2022/05/20 04:06:50;;;;;;;13.57;11.10;;;;;;;;;;5102718;27;20040;-77
2022/05/20 04:09:16;;;;;;;15.93;10.80;;;;;;;;;;5100832;27;20032;-77
2022/05/20 04:11:42;;;;;;;14.38;10.50;;;;;;;;;;5097674;28;20051;-77
2022/05/20 04:14:08;;;;;;;13.45;10.65;;;;;;;;;;5100379;27;20482;-77
2022/05/20 04:16:35;;;;;;;14.43;11.65;;;;;;;;;;5099037;27;20500;-77
2022/05/20 04:19:04;;;;;;;18.75;11.55;;;;;;;;;;5100144;27;20027;-77
2022/05/20 04:21:30;;;;;;;15.13;11.07;;;;;;;;;;5109787;27;20040;-77
2022/05/20 04:23:56;;;;;;;15.02;11.13;;;;;;;;;;5085072;28;20042;-77
2022/05/20 04:26:22;;;;;;;12.48;11.18;;;;;;;;;;5095771;27;20513;-76
2022/05/20 04:28:48;;;;;;;17.15;11.80;;;;;;;;;;5093954;28;20040;-76
2022/05/20 04:31:15;;;;;;;14.07;12.05;;;;;;;;;;5080651;28;20071;-77
2022/05/20 04:33:41;;;;;;;16.60;11.57;;;;;;;;;;5091103;27;20446;-77
2022/05/20 04:36:07;;;;;;;15.65;11.73;;;;;;;;;;5099976;27;20134;-77
2022/05/20 04:38:34;;;;;;;18.15;12.98;;;;;;;;;;5099656;28;20084;-77
2022/05/20 04:49:14;;;;;;;14.88;13.18;;;;;;;;;;5108181;27;20096;-77
2022/05/20 04:51:41;;;;;;;13.98;11.30;;;;;;;;;;5096074;28;20051;-77
2022/05/20 04:56:53;;;;;;;13.38;10.90;;;;;;;;;;5101945;27;20047;-77
2022/05/20 04:59:24;;;;;;;18.42;12.55;;;;;;;;;;5101701;28;20428;-77
2022/05/20 05:01:51;;;;;;;16.75;12.18;;;;;;;;;;5077915;28;20044;-77
2022/05/20 05:04:18;;;;;;;14.95;12.18;;;;;;;;;;5102362;27;20054;-76
2022/05/20 05:06:44;;;;;;;19.38;13.73;;;;;;;;;;5106662;27;20075;-77
2022/05/20 05:09:11;;;;;;;18.50;13.40;;;;;;;;;;5102068;27;20389;-77
2022/05/20 05:11:39;;;;;;;14.63;12.70;;;;;;;;;;5099932;28;20044;-77
2022/05/20 05:14:07;;;;;;;13.80;10.43;;;;;;;;;;5103894;28;20491;-77
2022/05/20 05:16:34;;;;;;;18.95;12.93;;;;;;;;;;5108197;27;20095;-77
2022/05/20 05:19:00;;;;;;;14.38;11.77;;;;;;;;;;5102896;27;20032;-77
2022/05/20 05:21:27;;;;;;;15.57;12.85;;;;;;;;;;5106232;27;20405;-77
2022/05/20 05:23:54;;;;;;;15.68;12.38;;;;;;;;;;5101604;27;20390;-77
2022/05/20 05:26:20;;;;;;;15.43;12.32;;;;;;;;;;5090127;27;20049;-77
2022/05/20 05:28:47;;;;;;;17.00;14.45;;;;;;;;;;5081861;28;20063;-77
2022/05/20 05:31:13;;;;;;;19.10;14.32;;;;;;;;;;5105036;28;20447;-77
2022/05/20 05:33:39;;;;;;;17.05;13.90;;;;;;;;;;5105878;27;20469;-77
2022/05/20 05:36:05;;;;;;;20.85;13.57;;;;;;;;;;5098447;27;20083;-77
2022/05/20 05:38:31;;;;;;;15.38;13.80;;;;;;;;;;5105799;27;20043;-77
2022/05/20 05:40:58;;;;;;;16.17;13.45;;;;;;;;;;5106732;27;20047;-77
2022/05/20 05:43:26;;;;;;;14.75;13.25;;;;;;;;;;5098855;27;20478;-77
2022/05/20 05:45:52;;;;;;;17.65;11.65;;;;;;;;;;5109188;27;20424;-77
2022/05/20 05:48:19;;;;;;;18.42;14.65;;;;;;;;;;5099938;28;20509;-77
2022/05/20 05:50:45;;;;;;;18.30;13.85;;;;;;;;;;5104777;28;20505;-77
2022/05/20 05:53:16;;;;;;;14.23;12.63;;;;;;;;;;5104485;27;20043;-77
2022/05/20 05:55:43;;;;;;;18.15;13.35;;;;;;;;;;5107768;28;20465;-77
2022/05/20 05:58:10;;;;;;;13.85;11.32;;;;;;;;;;5106323;28;20047;-77
2022/05/20 06:00:37;;;;;;;15.93;10.38;;;;;;;;;;5107694;27;20084;-77
2022/05/20 06:03:04;;;;;;;14.63;9.98;;;;;;;;;;5105510;28;20424;-77
2022/05/20 06:05:31;;;;;;;13.95;9.75;;;;;;;;;;5112171;27;20042;-73
2022/05/20 06:07:57;;;;;;;12.68;8.60;;;;;;;;;;5098472;27;20067;-76
2022/05/20 06:10:23;;;;;;;17.92;11.30;;;;;;;;;;5086519;28;20046;-77
2022/05/20 06:12:50;;;;;;;15.43;9.43;;;;;;;;;;5106123;28;20044;-76
2022/05/20 06:15:18;;;;;;;7.85;5.10;;;;;;;;;;5099050;28;20565;-76
2022/05/20 06:17:44;;;;;;;13.13;5.70;;;;;;;;;;5097354;28;20047;-76
2022/05/20 06:20:11;;;;;;;9.65;6.00;;;;;;;;;;5083396;28;20071;-76
2022/05/20 06:22:37;;;;;;;8.55;5.90;;;;;;;;;;5104158;28;20666;-76
2022/05/20 06:25:04;;;;;;;9.40;5.35;;;;;;;;;;5104837;27;20504;-76
2022/05/20 06:27:32;;;;;;;9.27;5.00;;;;;;;;;;5103853;28;20036;-76
2022/05/20 06:29:58;;;;;;;8.50;4.45;;;;;;;;;;5103464;27;20089;-77
2022/05/20 06:32:24;;;;;;;12.55;5.03;;;;;;;;;;5106870;27;20505;-76
2022/05/20 06:40:21;;;;;;;11.20;7.55;;;;;;;;;;5102668;27;20524;-76
2022/05/20 06:42:47;;;;;;;11.55;6.78;;;;;;;;;;5094758;27;20101;-77
2022/05/20 06:45:14;;;;;;;8.68;5.57;;;;;;;;;;5104180;27;20036;-77
2022/05/20 06:47:40;;;;;;;9.30;5.65;;;;;;;;;;5097866;28;20055;-76
2022/05/20 06:50:07;;;;;;;14.48;6.57;;;;;;;;;;5102492;27;20074;-76
2022/05/20 06:52:33;;;;;;;10.13;5.55;;;;;;;;;;5080087;28;20043;-76
2022/05/20 06:55:00;;;;;;;8.45;5.05;;;;;;;;;;5098842;28;20035;-77
2022/05/20 06:57:26;;;;;;;8.27;4.38;;;;;;;;;;5096761;28;20055;-77
2022/05/20 06:59:53;;;;;;;9.98;4.20;;;;;;;;;;5087652;28;20056;-76
2022/05/20 07:02:19;;;;;;;12.48;5.47;;;;;;;;;;5085022;27;20058;-76
2022/05/20 07:04:47;;;;;;;9.45;5.05;;;;;;;;;;5103163;27;20501;-76
2022/05/20 07:07:14;;;;;;;6.53;3.70;;;;;;;;;;5086984;28;20031;-76
2022/05/20 07:09:40;;;;;;;7.75;3.55;;;;;;;;;;5103614;27;20051;-77
2022/05/20 07:12:06;;;;;;;8.75;3.92;;;;;;;;;;5096286;27;20483;-77
2022/05/20 07:14:32;;;;;;;7.45;4.32;;;;;;;;;;5101787;28;20106;-76
2022/05/20 07:17:01;;;;;;;10.68;4.95;;;;;;;;;;5090189;28;20058;-77
2022/05/20 07:19:27;;;;;;;6.28;3.55;;;;;;;;;;5100920;27;20040;-76
2022/05/20 07:21:53;;;;;;;10.35;5.05;;;;;;;;;;5088170;28;20474;-77
2022/05/20 07:24:20;;;;;;;10.00;4.13;;;;;;;;;;5099748;27;20043;-76
2022/05/20 07:26:46;;;;;;;6.35;4.00;;;;;;;;;;5100264;27;20512;-77
2022/05/20 07:29:12;;;;;;;8.30;4.22;;;;;;;;;;5104666;27;20129;-76
2022/05/20 07:31:38;;;;;;;7.55;4.53;;;;;;;;;;5099044;27;20123;-76
2022/05/20 07:34:05;;;;;;;12.93;4.88;;;;;;;;;;5102917;28;20473;-76
2022/05/20 07:36:31;;;;;;;12.10;5.50;;;;;;;;;;5105362;27;20061;-76
2022/05/20 07:38:57;;;;;;;11.80;5.18;;;;;;;;;;5103370;27;20032;-77
2022/05/20 07:41:24;;;;;;;11.50;5.55;;;;;;;;;;5095710;27;20040;-77
2022/05/20 07:43:50;;;;;;;11.95;5.75;;;;;;;;;;5104715;27;20428;-77
2022/05/20 07:46:17;;;;;;;9.55;5.53;;;;;;;;;;5103676;28;20082;-77
2022/05/20 07:48:43;;;;;;;11.75;5.35;;;;;;;;;;5099334;28;20403;-76
2022/05/20 07:51:11;;;;;;;9.90;5.88;;;;;;;;;;5078423;28;20028;-77
2022/05/20 07:53:40;;;;;;;10.32;6.90;;;;;;;;;;5101719;27;20055;-77
2022/05/20 07:56:10;;;;;;;9.90;6.57;;;;;;;;;;5092673;27;20071;-76
2022/05/20 07:58:49;;;;;;;8.88;5.45;;;;;;;;;;5099709;27;20101;-77
2022/05/20 08:01:17;;;;;;;7.60;4.40;;;;;;;;;;5098100;28;20097;-76
2022/05/20 08:06:28;;;;;;;11.85;5.38;;;;;;;;;;5102642;27;20048;-76
2022/05/20 08:08:54;;;;;;;7.22;3.80;;;;;;;;;;5101582;28;20051;-77
2022/05/20 08:11:21;;;;;;;10.20;5.60;;;;;;;;;;5106734;27;20300;-77
2022/05/20 08:13:50;;;;;;;9.85;3.70;;;;;;;;;;5100850;27;20131;-77
2022/05/20 08:16:16;;;;;;;7.95;5.03;;;;;;;;;;5100542;28;20490;-77
2022/05/20 08:18:42;;;;;;;8.90;4.65;;;;;;;;;;5103199;27;20033;-76
2022/05/20 08:21:09;;;;;;;10.52;5.03;;;;;;;;;;5100158;27;20100;-77
2022/05/20 08:23:35;;;;;;;11.02;5.32;;;;;;;;;;5101866;28;20093;-77
2022/05/20 08:26:01;;;;;;;9.10;4.88;;;;;;;;;;5103273;28;20114;-77
2022/05/20 08:28:29;;;;;;;6.88;4.80;;;;;;;;;;5094082;28;20047;-77
2022/05/20 08:30:55;;;;;;;14.02;5.75;;;;;;;;;;5102144;27;20056;-77
2022/05/20 08:33:21;;;;;;;9.13;5.88;;;;;;;;;;5102304;27;20036;-77
2022/05/20 08:35:47;;;;;;;12.05;5.63;;;;;;;;;;5098968;28;20379;-77
2022/05/20 08:38:13;;;;;;;9.07;5.13;;;;;;;;;;5087442;28;20048;-77
2022/05/20 08:40:44;;;;;;;9.45;5.18;;;;;;;;;;5101632;28;20039;-77
2022/05/20 08:43:11;;;;;;;8.77;5.80;;;;;;;;;;5095060;28;20031;-77
2022/05/20 08:45:37;;;;;;;7.25;4.38;;;;;;;;;;5099694;27;20738;-77
2022/05/20 08:48:05;;;;;;;10.88;5.30;;;;;;;;;;5078345;28;20440;-77
2022/05/20 08:50:42;;;;;;;8.23;4.72;;;;;;;;;;5102470;27;20036;-76
2022/05/20 08:53:23;;;;;;;8.60;5.55;;;;;;;;;;5096513;28;20033;-77
2022/05/20 08:55:50;;;;;;;9.13;6.32;;;;;;;;;;5097200;28;20043;-77
2022/05/20 08:58:21;;;;;;;8.48;4.18;;;;;;;;;;5100443;27;20059;-77
2022/05/20 09:00:48;;;;;;;9.23;4.95;;;;;;;;;;5084501;27;20121;-76
2022/05/20 09:03:16;;;;;;;8.13;4.90;;;;;;;;;;5098647;28;20448;-76
2022/05/20 09:05:43;;;;;;;20.02;6.95;;;;;;;;;;5102410;27;20043;-77
2022/05/20 09:08:19;;;;;;;7.82;4.75;;;;;;;;;;5101394;27;20127;-76
2022/05/20 09:10:58;;;;;;;8.82;4.90;;;;;;;;;;5081063;28;20043;-77
2022/05/20 09:16:12;;;;;;;9.63;5.60;;;;;;;;;;5101097;27;20048;-77
2022/05/20 09:18:39;;;;;;;9.70;4.85;;;;;;;;;;5099209;27;20104;-77
2022/05/20 09:21:07;;;;;;;8.75;4.35;;;;;;;;;;5101293;28;20039;-77
2022/05/20 09:23:47;;;;;;;11.55;5.20;;;;;;;;;;5100327;27;20043;-77
2022/05/20 09:26:13;;;;;;;11.40;5.22;;;;;;;;;;5098452;27;20038;-77
2022/05/20 09:28:47;;;;;;;10.75;5.35;;;;;;;;;;5084601;28;20050;-76
2022/05/20 09:31:39;;;;;;;8.50;5.72;;;;;;;;;;5098019;27;20040;-77
2022/05/20 09:34:30;;;;;;;12.80;5.90;;;;;;;;;;5102206;27;20543;-77
2022/05/20 09:36:57;;;;;;;9.27;5.35;;;;;;;;;;5085001;28;20277;-77
2022/05/20 09:39:35;;;;;;;7.82;4.35;;;;;;;;;;5099856;27;20032;-77
2022/05/20 09:42:10;;;;;;;7.50;4.75;;;;;;;;;;5095914;28;20082;-77
2022/05/20 09:44:41;;;;;;;9.07;4.95;;;;;;;;;;5106829;28;20377;-77
2022/05/20 09:47:13;;;;;;;8.05;4.45;;;;;;;;;;5083595;28;20445;-77
2022/05/20 09:49:39;;;;;;;10.95;4.90;;;;;;;;;;5082839;28;20313;-77
2022/05/20 09:52:15;;;;;;;12.82;4.75;;;;;;;;;;5095357;28;20036;-77
2022/05/20 09:54:45;;;;;;;9.02;5.05;;;;;;;;;;5102847;27;20040;-77
2022/05/20 09:57:13;;;;;;;12.93;5.03;;;;;;;;;;5102425;28;20516;-77
2022/05/20 09:59:39;;;;;;;9.48;6.28;;;;;;;;;;5103391;27;20184;-77
2022/05/20 10:02:19;;;;;;;10.73;5.20;;;;;;;;;;5102056;28;20501;-77
2022/05/20 10:04:45;;;;;;;9.35;5.03;;;;;;;;;;5106569;28;20032;-77
2022/05/20 10:07:14;;;;;;;8.68;5.30;;;;;;;;;;5103390;28;20495;-77
2022/05/20 10:09:41;;;;;;;7.65;4.82;;;;;;;;;;5096808;27;20058;-77
2022/05/20 10:12:13;;;;;;;6.72;3.97;;;;;;;;;;5097886;28;20385;-77
2022/05/20 10:14:53;;;;;;;6.05;4.22;;;;;;;;;;5102128;28;20040;-77
2022/05/20 10:17:34;;;;;;;11.65;4.30;;;;;;;;;;5099137;28;20079;-77
2022/05/20 10:20:25;;;;;;;7.28;4.53;;;;;;;;;;5096715;28;20126;-77
2022/05/20 10:23:15;;;;;;;7.95;4.90;;;;;;;;;;5099116;28;20043;-77
2022/05/20 10:26:00;;;;;;;7.38;4.50;;;;;;;;;;5068916;28;20075;-77
2022/05/20 10:34:06;;;;;;;9.77;5.22;;;;;;;;;;5084181;28;19916;-77
2022/05/20 10:37:03;;;;;;;4.90;4.22;;;;;;;;;;5088582;28;20039;-76
2022/05/20 10:39:56;;;;;;;5.70;4.65;;;;;;;;;;5083849;28;20035;-77
2022/05/20 10:42:41;;;;;;;11.32;5.32;;;;;;;;;;5076680;28;20428;-77
2022/05/20 10:51:07;;;;;;;7.68;3.92;;;;;;;;;;5101641;28;20123;-77
2022/05/20 10:53:52;;;;;;;5.75;4.50;;;;;;;;;;5092087;28;20063;-78
2022/05/20 10:56:33;;;;;;;8.25;5.10;;;;;;;;;;5102490;28;20071;-77
2022/05/20 10:59:18;;;;;;;8.40;4.88;;;;;;;;;;5100662;28;20043;-77
2022/05/20 11:01:53;;;;;;;8.50;4.75;;;;;;;;;;5102241;28;20087;-77
2022/05/20 11:04:19;;;;;;;8.02;4.13;;;;;;;;;;5101533;28;20032;-77
2022/05/20 11:07:04;;;;;;;9.68;4.90;;;;;;;;;;5085895;28;20566;-78
2022/05/20 11:09:30;;;;;;;7.78;4.18;;;;;;;;;;5103589;28;20031;-77
2022/05/20 11:12:00;;;;;;;4.97;3.92;;;;;;;;;;5098364;27;20044;-77
2022/05/20 11:14:36;;;;;;;9.10;4.45;;;;;;;;;;5103553;27;20127;-78
2022/05/20 11:17:10;;;;;;;7.28;5.15;;;;;;;;;;5109203;28;20031;-78
2022/05/20 11:19:54;;;;;;;7.00;4.40;;;;;;;;;;5080745;28;20444;-78
2022/05/20 11:22:23;;;;;;;9.13;4.50;;;;;;;;;;5101919;27;20031;-77
2022/05/20 11:24:52;;;;;;;7.93;4.53;;;;;;;;;;5098724;27;20048;-78
2022/05/20 11:27:34;;;;;;;7.93;3.85;;;;;;;;;;5087742;28;20039;-78
2022/05/20 11:30:03;;;;;;;4.70;3.53;;;;;;;;;;5099342;27;20043;-78
2022/05/20 11:32:41;;;;;;;8.30;4.07;;;;;;;;;;5102853;27;20485;-77
2022/05/20 11:35:10;;;;;;;7.43;3.80;;;;;;;;;;5105215;27;20497;-77
2022/05/20 11:37:36;;;;;;;8.55;5.05;;;;;;;;;;5098247;28;20442;-78
2022/05/20 11:40:08;;;;;;;11.80;5.43;;;;;;;;;;5099198;27;20385;-77
2022/05/20 11:42:53;;;;;;;12.65;5.50;;;;;;;;;;5097325;27;20070;-77
2022/05/20 11:45:28;;;;;;;9.80;6.18;;;;;;;;;;5102338;28;20529;-78
2022/05/20 11:48:19;;;;;;;10.32;5.28;;;;;;;;;;5101334;27;20034;-78
2022/05/20 11:50:48;;;;;;;10.95;5.47;;;;;;;;;;5102268;27;20040;-78
2022/05/20 11:53:24;;;;;;;6.57;5.63;;;;;;;;;;5104592;27;20209;-78
2022/05/20 11:56:00;;;;;;;7.72;5.68;;;;;;;;;;5096864;28;20354;-78
2022/05/20 11:58:33;;;;;;;7.85;6.60;;;;;;;;;;5098318;27;20422;-77
2022/05/20 12:01:00;;;;;;;6.75;5.38;;;;;;;;;;5100563;27;20102;-78
2022/05/20 12:03:28;;;;;;;10.65;6.00;;;;;;;;;;5093339;27;20046;-78
2022/05/20 12:05:55;;;;;;;7.68;5.70;;;;;;;;;;5097792;28;20397;-78
2022/05/20 12:08:44;;;;;;;10.65;5.22;;;;;;;;;;5078056;28;20039;-78
2022/05/20 12:11:22;;;;;;;7.88;4.75;;;;;;;;;;5097364;27;20963;-78
2022/05/20 12:14:03;;;;;;;20.85;5.60;;;;;;;;;;5101691;28;20038;-79
2022/05/20 12:16:30;;;;;;;7.95;5.35;;;;;;;;;;5099597;27;20035;-78
2022/05/20 12:24:50;;;;;;;10.20;6.68;;;;;;;;;;5090236;28;20096;-77
2022/05/20 12:27:22;;;;;;;13.45;7.70;;;;;;;;;;5091231;27;20040;-77
2022/05/20 12:29:58;;;;;;;11.63;8.30;;;;;;;;;;5102607;28;20036;-74
2022/05/20 12:32:36;;;;;;;9.77;7.13;;;;;;;;;;5089839;28;20110;-74
2022/05/20 12:35:14;;;;;;;8.75;6.03;;;;;;;;;;5097824;28;20122;-74
2022/05/20 12:37:43;;;;;;;7.13;4.97;;;;;;;;;;5112857;27;20043;-74
2022/05/20 12:40:25;;;;;;;9.40;6.07;;;;;;;;;;5083943;28;20036;-74
2022/05/20 12:42:57;;;;;;;10.55;5.15;;;;;;;;;;5092478;28;20047;-74
2022/05/20 12:45:23;;;;;;;;;;;;;;;;;;5109474;27;20069;-74
2022/05/20 12:47:50;;;;;;;8.70;4.85;;;;;;;;;;5097444;28;19915;-74
2022/05/20 12:50:16;;;;;;;7.53;5.03;;;;;;;;;;5108516;27;20088;-75
2022/05/20 12:52:47;;;;;;;6.93;4.50;;;;;;;;;;5101588;28;20040;-75
2022/05/20 12:55:16;;;;;;;5.78;4.18;;;;;;;;;;5101637;27;20039;-75
2022/05/20 12:57:54;;;;;;;5.18;3.88;;;;;;;;;;5086880;28;20059;-74
2022/05/20 13:00:30;;;;;;;10.13;4.45;;;;;;;;;;5106166;28;20051;-75
2022/05/20 13:03:01;;;;;;;8.75;4.88;;;;;;;;;;5102579;28;20075;-74
2022/05/20 13:05:31;;;;;;;9.63;4.72;;;;;;;;;;5106356;27;20044;-75
2022/05/20 13:07:58;;;;;;;14.32;5.05;;;;;;;;;;5105604;28;20079;-75
2022/05/20 13:10:35;;;;;;;7.07;5.03;;;;;;;;;;5106150;27;20040;-75
2022/05/20 13:13:07;;;;;;;5.22;4.63;;;;;;;;;;5106442;28;20033;-75
2022/05/20 13:15:39;;;;;;;6.80;4.38;;;;;;;;;;5109613;28;20557;-75
2022/05/20 13:18:08;;;;;;;;;;;;;;;;;;5110958;27;20103;-75
2022/05/20 13:20:36;;;;;;;8.18;3.80;;;;;;;;;;5087096;28;19926;-74
2022/05/20 13:23:03;;;;;;;6.88;3.53;;;;;;;;;;5105118;28;20040;-75
2022/05/20 13:25:30;;;;;;;5.20;3.53;;;;;;;;;;5102996;28;20470;-75
2022/05/20 13:27:56;;;;;;;6.75;3.88;;;;;;;;;;5101180;28;20051;-75
2022/05/20 13:30:25;;;;;;;7.15;3.13;;;;;;;;;;5105547;28;20051;-74
2022/05/20 13:32:51;;;;;;;18.80;4.03;;;;;;;;;;5089636;28;20039;-75
2022/05/20 13:35:17;;;;;;;7.25;3.15;;;;;;;;;;5110011;27;20035;-75
2022/05/20 13:37:48;;;;;;;7.18;3.72;;;;;;;;;;5106962;28;20128;-76
2022/05/20 13:40:19;;;;;;;5.22;3.30;;;;;;;;;;5105246;27;20044;-76
2022/05/20 13:42:48;;;;;;;4.18;2.85;;;;;;;;;;5102488;28;20176;-76
2022/05/20 13:45:16;;;;;;;5.85;3.03;;;;;;;;;;5103369;28;20397;-76
2022/05/20 13:50:28;;;;;;;8.38;3.60;;;;;;;;;;5107037;28;20161;-75
2022/05/20 13:52:55;;;;;;;6.82;3.58;;;;;;;;;;5103457;28;20078;-76
2022/05/20 13:55:22;;;;;;;5.43;3.72;;;;;;;;;;5104195;28;20081;-76
2022/05/20 13:57:49;;;;;;;7.03;4.40;;;;;;;;;;5102440;28;20054;-75
2022/05/20 14:00:42;;;;;;;8.10;5.07;;;;;;;;;;5099245;28;20515;-75
2022/05/20 14:03:27;;;;;;;10.32;4.72;;;;;;;;;;5099072;28;20044;-75
2022/05/20 14:05:59;;;;;;;9.80;5.63;;;;;;;;;;5075664;28;20516;-75
2022/05/20 14:08:26;;;;;;;8.73;5.18;;;;;;;;;;5097494;28;20043;-75
2022/05/20 14:10:54;;;;;;;7.13;5.65;;;;;;;;;;5102283;28;20098;-75
2022/05/20 14:13:37;;;;;;;8.27;5.95;;;;;;;;;;5110211;27;20067;-75
2022/05/20 14:16:09;;;;;;;8.68;6.05;;;;;;;;;;5107054;28;20039;-76
2022/05/20 14:18:36;;;;;;;8.25;6.40;;;;;;;;;;5101760;28;20039;-76
2022/05/20 14:21:05;;;;;;;11.52;6.53;;;;;;;;;;5098492;28;20040;-75
2022/05/20 14:23:36;;;;;;;12.85;6.35;;;;;;;;;;5096714;28;20036;-75
2022/05/20 14:26:04;;;;;;;8.63;7.30;;;;;;;;;;5098461;28;20040;-75
2022/05/20 14:28:50;;;;;;;8.90;6.93;;;;;;;;;;5110366;28;20044;-75
2022/05/20 14:31:34;;;;;;;13.00;7.78;;;;;;;;;;5109667;28;20047;-75
2022/05/20 14:34:10;;;;;;;9.38;7.38;;;;;;;;;;5103974;28;20085;-76
2022/05/20 14:36:37;;;;;;;13.02;7.35;;;;;;;;;;5107001;28;20052;-76
2022/05/20 14:39:05;;;;;;;12.70;6.47;;;;;;;;;;5112978;28;20055;-76
2022/05/20 14:41:31;;;;;;;9.07;6.50;;;;;;;;;;5102113;28;20099;-76
2022/05/20 14:43:59;;;;;;;11.65;6.97;;;;;;;;;;5108876;28;20047;-75
2022/05/20 14:49:34;;;;;;;11.02;6.85;;;;;;;;;;5106741;28;20126;-75
2022/05/20 14:52:01;;;;;;;9.85;7.13;;;;;;;;;;5107580;28;20032;-75
2022/05/20 14:54:38;;;;;;;10.65;6.82;;;;;;;;;;5108969;28;20508;-75
2022/05/20 14:57:18;;;;;;;7.50;5.45;;;;;;;;;;5106192;28;20101;-75
2022/05/20 14:59:44;;;;;;;11.00;6.45;;;;;;;;;;5109847;28;20051;-75
2022/05/20 15:02:10;;;;;;;8.65;6.32;;;;;;;;;;5087738;27;20089;-75
2022/05/20 15:04:37;;;;;;;11.15;6.65;;;;;;;;;;5113442;27;20127;-75
2022/05/20 15:07:03;;;;;;;7.90;5.28;;;;;;;;;;5102620;27;20546;-75
2022/05/20 15:09:34;;;;;;;8.30;6.45;;;;;;;;;;5111648;28;20039;-75
2022/05/20 15:12:00;;;;;;;14.30;6.85;;;;;;;;;;5106993;28;20044;-75
2022/05/20 15:14:26;;;;;;;13.23;7.10;;;;;;;;;;5106956;28;20036;-75
2022/05/20 15:16:54;;;;;;;10.20;6.88;;;;;;;;;;5091026;27;20034;-75
2022/05/20 15:19:20;;;;;;;9.20;6.57;;;;;;;;;;5103897;28;20053;-74
2022/05/20 15:21:47;;;;;;;8.43;5.60;;;;;;;;;;5108279;27;20071;-74
2022/05/20 15:24:13;;;;;;;10.15;5.28;;;;;;;;;;5111858;27;20118;-74
2022/05/20 15:26:40;;;;;;;8.38;6.03;;;;;;;;;;5098688;28;20047;-74
2022/05/20 15:29:09;;;;;;;7.38;5.43;;;;;;;;;;5100191;28;20119;-74
2022/05/20 15:37:11;;;;;;;7.78;5.93;;;;;;;;;;5094395;28;20516;-73
2022/05/20 15:39:42;;;;;;;6.97;5.47;;;;;;;;;;5102000;28;20552;-73
2022/05/20 15:42:08;;;;;;;11.18;5.80;;;;;;;;;;5100600;28;20405;-73
2022/05/20 15:44:34;;;;;;;7.93;4.90;;;;;;;;;;5104165;28;20039;-73
2022/05/20 15:47:01;;;;;;;9.15;5.53;;;;;;;;;;5100540;27;20039;-73